createdAt,value
2019-03-12T00:02:51.377Z,15.80
2019-03-12T00:06:56.539Z,17.17
2019-03-12T00:11:01.683Z,11.47
2019-03-12T00:15:06.998Z,15.53
2019-03-12T00:19:12.199Z,18.70
2019-03-12T00:23:17.365Z,23.67
2019-03-12T00:27:22.624Z,17.63
2019-03-12T00:31:27.765Z,16.77
2019-03-12T00:35:32.968Z,15.13
2019-03-12T00:39:38.094Z,21.37
2019-03-12T00:43:43.456Z,14.83
2019-03-12T00:47:48.731Z,11.73
2019-03-12T00:51:53.896Z,13.77
2019-03-12T00:55:59.051Z,13.27
2019-03-12T01:00:04.472Z,10.13
2019-03-12T01:04:11.246Z,11.47
2019-03-12T01:08:16.333Z,14.53
2019-03-12T01:12:21.445Z,13.40
2019-03-12T01:16:26.631Z,8.93
2019-03-12T01:20:31.833Z,18.17
2019-03-12T01:24:37.954Z,14.93
2019-03-12T01:28:43.233Z,11.53
2019-03-12T01:32:48.761Z,12.00
2019-03-12T01:36:54.040Z,8.10
2019-03-12T01:40:59.197Z,8.33
2019-03-12T01:45:04.742Z,10.33
2019-03-12T01:49:09.990Z,10.93
2019-03-12T01:53:15.180Z,11.97
2019-03-12T01:57:20.426Z,15.20
2019-03-12T02:01:25.743Z,11.07
2019-03-12T02:05:31.121Z,13.40
2019-03-12T02:09:36.285Z,14.67
2019-03-12T02:13:41.448Z,11.77
2019-03-12T02:17:46.637Z,11.90
2019-03-12T02:21:51.779Z,11.00
2019-03-12T02:25:57.967Z,13.83
2019-03-12T02:30:03.119Z,13.73
2019-03-12T02:34:09.618Z,15.33
2019-03-12T02:38:14.798Z,13.77
2019-03-12T02:42:19.908Z,14.70
2019-03-12T02:46:25.183Z,15.13
2019-03-12T02:50:30.437Z,16.97
2019-03-12T02:54:35.682Z,12.93
2019-03-12T02:58:41.681Z,12.77
2019-03-12T03:02:47.932Z,13.80
2019-03-12T03:07:00.599Z,17.57
2019-03-12T03:11:05.779Z,17.70
2019-03-12T03:15:14.168Z,15.30
2019-03-12T03:19:19.582Z,12.87
2019-03-12T03:23:24.835Z,17.90
2019-03-12T03:27:30.136Z,15.10
2019-03-12T03:31:35.296Z,17.30
2019-03-12T03:35:40.418Z,12.90
2019-03-12T03:39:46.516Z,19.47
2019-03-12T03:43:53.234Z,22.50
2019-03-12T03:47:58.386Z,12.50
2019-03-12T03:52:03.889Z,14.33
2019-03-12T03:56:10.088Z,17.97
2019-03-12T04:00:17.509Z,15.33
2019-03-12T04:04:22.720Z,15.23
2019-03-12T04:08:27.912Z,21.07
2019-03-12T04:12:33.465Z,23.50
2019-03-12T04:16:38.736Z,24.63
2019-03-12T04:20:48.715Z,18.90
2019-03-12T04:24:53.885Z,20.50
2019-03-12T04:28:59.030Z,16.63
2019-03-12T04:33:04.501Z,16.27
2019-03-12T04:37:09.671Z,19.73
2019-03-12T04:41:15.189Z,18.67
2019-03-12T04:45:20.355Z,19.13
2019-03-12T04:49:25.547Z,19.43
2019-03-12T04:53:30.765Z,20.23
2019-03-12T04:57:36.037Z,22.73
2019-03-12T05:01:41.325Z,16.17
2019-03-12T05:05:46.683Z,24.60
2019-03-12T05:09:52.817Z,26.30
2019-03-12T05:14:22.601Z,17.83
2019-03-12T05:18:27.814Z,17.93
2019-03-12T05:22:32.916Z,23.73
2019-03-12T05:26:48.346Z,19.67
2019-03-12T05:30:53.579Z,66.93
2019-03-12T05:34:58.816Z,20.97
2019-03-12T05:39:06.640Z,15.10
2019-03-12T05:43:13.006Z,20.87
2019-03-12T05:47:18.182Z,15.93
2019-03-12T05:51:23.437Z,22.17
2019-03-12T05:55:28.636Z,19.33
2019-03-12T05:59:33.867Z,18.23
2019-03-12T06:03:39.273Z,15.80
2019-03-12T06:07:44.487Z,22.53
2019-03-12T06:11:49.741Z,16.83
2019-03-12T06:15:56.443Z,19.30
2019-03-12T06:20:01.618Z,65.90
2019-03-12T06:24:06.960Z,18.77
2019-03-12T06:28:14.920Z,18.97
2019-03-12T06:32:42.127Z,16.37
2019-03-12T06:37:06.902Z,16.70
2019-03-12T06:41:21.314Z,16.50
2019-03-12T06:45:44.636Z,13.83
2019-03-12T06:50:04.792Z,24.70
2019-03-12T06:54:35.444Z,19.00
2019-03-12T06:58:49.314Z,12.50
2019-03-12T07:03:13.041Z,16.13
2019-03-12T07:07:35.689Z,17.97
2019-03-12T07:11:46.547Z,13.97
2019-03-12T07:16:16.980Z,14.37
2019-03-12T07:20:53.388Z,14.50
2019-03-12T07:25:16.214Z,16.40
2019-03-12T07:29:34.766Z,14.93
2019-03-12T07:33:58.578Z,16.77
2019-03-12T07:38:20.851Z,11.20
2019-03-12T07:42:45.519Z,14.77
2019-03-12T07:47:05.779Z,13.20
2019-03-12T07:51:44.884Z,8.17
2019-03-12T07:56:02.164Z,10.90
2019-03-12T08:00:15.285Z,11.50
2019-03-12T08:04:30.941Z,12.47
2019-03-12T08:08:56.850Z,12.87
2019-03-12T08:13:19.457Z,11.60
2019-03-12T08:17:43.683Z,11.12
2019-03-12T08:22:07.789Z,9.57
2019-03-12T08:26:37.651Z,6.63
2019-03-12T08:31:11.233Z,10.03
2019-03-12T08:35:41.576Z,13.80
2019-03-12T08:39:53.689Z,15.27
2019-03-12T08:44:08.352Z,10.93
2019-03-12T08:48:27.831Z,11.80
2019-03-12T08:52:45.684Z,6.63
2019-03-12T08:57:05.559Z,11.47
2019-03-12T09:01:21.945Z,6.23
2019-03-12T09:05:46.448Z,9.40
2019-03-12T09:10:19.339Z,9.20
2019-03-12T09:14:53.526Z,11.07
2019-03-12T09:19:17.054Z,8.80
2019-03-12T09:23:49.472Z,11.10
2019-03-12T09:28:27.786Z,12.80
2019-03-12T09:33:02.674Z,13.37
2019-03-12T09:37:27.860Z,8.90
2019-03-12T09:41:51.348Z,14.07
2019-03-12T09:46:15.525Z,8.47
2019-03-12T09:50:49.758Z,12.27
2019-03-12T09:55:09.717Z,6.63
2019-03-12T09:59:34.204Z,8.50
2019-03-12T10:03:52.219Z,9.63
2019-03-12T10:08:13.791Z,11.40
2019-03-12T10:12:36.654Z,11.17
2019-03-12T10:17:13.047Z,7.93
2019-03-12T10:21:55.159Z,7.93
2019-03-12T10:26:19.216Z,8.97
2019-03-12T10:30:41.827Z,7.47
2019-03-12T10:35:05.940Z,10.10
2019-03-12T10:40:07.624Z,14.77
2019-03-12T10:44:27.671Z,11.63
2019-03-12T10:48:34.253Z,11.07
2019-03-12T10:52:42.190Z,10.07
2019-03-12T10:56:48.252Z,7.27
2019-03-12T11:00:53.486Z,6.70
2019-03-12T11:04:58.621Z,8.30
2019-03-12T11:09:07.927Z,8.43
2019-03-12T11:13:14.700Z,12.03
2019-03-12T11:17:20.011Z,6.97
2019-03-12T11:21:25.157Z,7.63
2019-03-12T11:25:30.328Z,9.30
2019-03-12T11:29:35.459Z,8.03
2019-03-12T11:33:40.793Z,8.77
2019-03-12T11:37:45.951Z,7.67
2019-03-12T11:41:52.114Z,7.30
2019-03-12T11:45:57.414Z,5.23
2019-03-12T11:50:02.551Z,5.90
2019-03-12T11:54:08.982Z,6.67
2019-03-12T11:58:14.069Z,3.93
2019-03-12T12:02:19.182Z,9.17
2019-03-12T12:06:24.464Z,9.63
2019-03-12T12:10:29.786Z,8.43
2019-03-12T12:14:34.938Z,6.90
2019-03-12T12:18:40.212Z,7.40
2019-03-12T12:22:45.388Z,5.83
2019-03-12T12:26:50.509Z,5.07
2019-03-12T12:30:55.668Z,5.57
2019-03-12T12:35:00.836Z,8.00
2019-03-12T12:39:07.691Z,8.03
2019-03-12T12:43:14.481Z,7.00
2019-03-12T12:47:19.950Z,6.77
2019-03-12T12:51:25.066Z,6.43
2019-03-12T12:55:30.166Z,4.33
2019-03-12T12:59:35.238Z,5.83
2019-03-12T13:03:40.477Z,5.87
2019-03-12T13:07:46.632Z,5.50
2019-03-12T13:11:52.032Z,5.60
2019-03-12T13:15:57.190Z,5.33
2019-03-12T13:20:04.844Z,3.13
2019-03-12T13:24:10.063Z,6.10
2019-03-12T13:28:15.239Z,5.57
2019-03-12T13:32:20.520Z,7.50
2019-03-12T13:36:25.695Z,6.20
2019-03-12T13:40:30.862Z,3.87
2019-03-12T13:44:35.986Z,3.83
2019-03-12T13:48:41.174Z,2.47
2019-03-12T13:52:46.422Z,4.37
2019-03-12T13:56:51.588Z,6.43
2019-03-12T14:00:56.800Z,4.40
2019-03-12T14:05:01.983Z,4.80
2019-03-12T14:09:07.590Z,3.97
2019-03-12T14:13:14.452Z,5.70
2019-03-12T14:17:19.657Z,8.10
2019-03-12T14:21:24.748Z,3.90
2019-03-12T14:25:29.891Z,5.43
2019-03-12T14:29:35.004Z,4.20
2019-03-12T14:33:40.178Z,4.73
2019-03-12T14:37:45.394Z,4.00
2019-03-12T14:41:50.447Z,4.33
2019-03-12T14:45:55.585Z,3.37
2019-03-12T14:50:01.656Z,7.77
2019-03-12T14:54:06.896Z,2.30
2019-03-12T14:58:12.069Z,5.00
2019-03-12T15:02:20.530Z,5.30
2019-03-12T15:06:25.660Z,1.60
2019-03-12T15:10:30.889Z,3.93
2019-03-12T15:14:36.281Z,4.03
2019-03-12T15:18:41.405Z,5.57
2019-03-12T15:22:46.807Z,5.17
2019-03-12T15:26:51.929Z,3.90
2019-03-12T15:30:57.064Z,3.17
2019-03-12T15:35:02.247Z,3.33
2019-03-12T15:39:09.077Z,3.27
2019-03-12T15:43:16.088Z,2.77
2019-03-12T15:47:21.222Z,5.57
2019-03-12T15:51:26.367Z,2.70
2019-03-12T15:55:31.609Z,4.03
2019-03-12T15:59:36.814Z,3.70
2019-03-12T16:03:43.738Z,3.37
2019-03-12T16:07:48.851Z,5.97
2019-03-12T16:11:53.963Z,4.10
2019-03-12T16:15:59.124Z,5.90
2019-03-12T16:20:04.733Z,3.95
2019-03-12T16:24:09.971Z,4.70
2019-03-12T16:28:15.052Z,5.47
2019-03-12T16:32:20.196Z,3.70
2019-03-12T16:36:25.357Z,4.20
2019-03-12T16:40:30.514Z,4.47
2019-03-12T16:44:35.591Z,4.37
2019-03-12T16:48:40.698Z,4.67
2019-03-12T16:52:48.134Z,4.33
2019-03-12T16:56:53.246Z,3.67
2019-03-12T17:00:58.493Z,2.67
2019-03-12T17:05:05.562Z,3.93
2019-03-12T17:09:10.599Z,5.50
2019-03-12T17:13:17.443Z,4.87
2019-03-12T17:17:22.569Z,7.33
2019-03-12T17:21:27.940Z,6.30
2019-03-12T17:25:33.017Z,4.13
2019-03-12T17:29:38.166Z,5.93
2019-03-12T17:33:43.390Z,4.33
2019-03-12T17:37:48.691Z,3.80
2019-03-12T17:41:59.907Z,3.40
2019-03-12T17:46:05.072Z,5.73
2019-03-12T17:50:10.675Z,6.00
2019-03-12T17:54:15.774Z,4.83
2019-03-12T17:58:21.843Z,3.50
2019-03-12T18:02:27.010Z,6.30
2019-03-12T18:06:34.868Z,5.17
2019-03-12T18:10:38.900Z,4.87
2019-03-12T18:14:44.061Z,5.23
2019-03-12T18:18:50.128Z,3.77
2019-03-12T18:22:55.247Z,4.60
2019-03-12T18:27:00.561Z,8.67
2019-03-12T18:31:05.683Z,5.23
2019-03-12T18:35:10.987Z,4.23
2019-03-12T18:39:17.246Z,4.77
2019-03-12T18:43:22.382Z,5.17
2019-03-12T18:47:27.556Z,4.40
2019-03-12T18:51:32.729Z,6.90
2019-03-12T18:56:04.910Z,6.60
2019-03-12T19:00:12.671Z,5.17
2019-03-12T19:04:18.101Z,7.33
2019-03-12T19:08:23.210Z,4.57
2019-03-12T19:12:28.302Z,3.80
2019-03-12T19:16:33.434Z,5.77
2019-03-12T19:20:38.541Z,4.53
2019-03-12T19:24:45.365Z,4.60
2019-03-12T19:28:50.607Z,3.90
2019-03-12T19:33:01.778Z,5.17
2019-03-12T19:37:06.976Z,6.10
2019-03-12T19:41:12.462Z,9.03
2019-03-12T19:45:17.628Z,8.57
2019-03-12T19:49:22.767Z,4.90
2019-03-12T19:53:27.935Z,5.40
2019-03-12T19:57:33.088Z,7.03
2019-03-12T20:01:39.089Z,4.70
2019-03-12T20:05:44.273Z,4.37
2019-03-12T20:10:12.646Z,6.80
2019-03-12T20:14:49.666Z,6.50
2019-03-12T20:19:28.009Z,4.80
2019-03-12T20:24:21.821Z,9.40
2019-03-12T20:29:05.062Z,4.37
2019-03-12T20:34:05.661Z,5.13
2019-03-12T20:38:54.454Z,6.07
2019-03-12T20:43:36.280Z,6.97
2019-03-12T20:48:03.398Z,4.20
2019-03-12T20:52:44.266Z,1.87
2019-03-12T20:57:29.111Z,2.03
2019-03-12T21:02:05.985Z,2.10
2019-03-12T21:06:48.612Z,3.27
2019-03-12T21:11:29.488Z,3.20
2019-03-12T21:16:11.337Z,3.77
2019-03-12T21:20:53.924Z,4.93
2019-03-12T21:25:39.156Z,3.60
2019-03-12T21:29:46.172Z,5.20
2019-03-12T21:33:51.295Z,4.63
2019-03-12T21:37:56.402Z,7.60
2019-03-12T21:42:01.551Z,6.63
2019-03-12T21:46:06.684Z,8.27
2019-03-12T21:50:11.892Z,7.30
2019-03-12T21:54:16.988Z,8.00
2019-03-12T21:58:22.082Z,9.30
2019-03-12T22:02:27.208Z,8.90
2019-03-12T22:06:32.332Z,11.63
2019-03-12T22:10:38.448Z,10.70
2019-03-12T22:14:43.625Z,9.70
2019-03-12T22:18:48.795Z,8.00
2019-03-12T22:23:04.266Z,9.03
2019-03-12T22:27:09.412Z,8.50
2019-03-12T22:31:14.527Z,9.37
2019-03-12T22:35:19.621Z,8.10
2019-03-12T22:39:24.819Z,9.50
2019-03-12T22:43:30.012Z,8.33
2019-03-12T22:47:35.384Z,7.90
2019-03-12T22:51:40.545Z,8.40
2019-03-12T22:55:45.654Z,9.83
2019-03-12T22:59:50.731Z,9.10
2019-03-12T23:04:13.687Z,8.13
2019-03-12T23:08:36.584Z,9.87
2019-03-12T23:12:42.956Z,10.67
2019-03-12T23:16:48.154Z,11.90
2019-03-12T23:20:53.658Z,13.30
2019-03-12T23:24:59.817Z,10.13
2019-03-12T23:29:05.096Z,10.30
2019-03-12T23:33:11.503Z,9.70
2019-03-12T23:37:16.689Z,9.07
2019-03-12T23:41:21.852Z,6.77
2019-03-12T23:45:26.979Z,7.07
2019-03-12T23:49:33.753Z,5.70
2019-03-12T23:53:38.884Z,5.73
2019-03-12T23:57:44.128Z,8.30
